Cairngorm, United Kingdom
Current Conditions -  °F | °C
As of 2:50 PM on Friday 28 Nov 2014 (Local Time) from EGPE Reporting Station
Moderate Fog Moderate Fog  
Wind Chill: 43°   Ceiling: 100
Heat Index: 43°   Visibility: 0.18mi
Dew Point: 43°   Wind: 0mph
Humidity: 100%   Direction: NA
Pressure: 29.85"   Gusts: NA
Location:  57.12°N, 3.64°W
Report Text: EGPE 281450Z 00000KT 0300 R23/0800 FG BKN001 06/06 Q1011
Loading
Personal Weather Stations






























Interactive Weather Map New forecast layout! Learn more

10-Day Weather Forecast

Advertisements
Track Severe Weather on mobile